Terminal Aerodrome Forecast
Issued by NWS Wakefield, VA

Home | Current Version | Previous Version | Text Only | Print | Product List | Glossary On
Versions: 1 2 3 4 5 6 7 8 9 10 11 12 13 14 15 16 17 18 19
000
FTUS41 KAKQ 271800 AAA
TAFECG
TAF AMD
KECG 271831Z 2719/2818 33013KT P6SM OVC015
      TEMPO 2720/2724 OVC025
     FM280000 33012KT P6SM OVC025
     FM280500 32013KT P6SM BKN040
     FM281000 33013G20KT P6SM SKC=

USA.gov is the U.S. government's official web portal to all federal, state and local government web resources and services.